sensor_id;sensor_type;location;lat;lon;timestamp;P1;durP1;ratioP1;P2;durP2;ratioP2
21786;SDS011;11055;50.870;4.316;2022-12-11T00:00:49;30.67;;;17.40;;
21786;SDS011;11055;50.870;4.316;2022-12-11T00:03:16;27.95;;;17.48;;
21786;SDS011;11055;50.870;4.316;2022-12-11T00:05:42;30.08;;;17.73;;
21786;SDS011;11055;50.870;4.316;2022-12-11T00:08:10;26.15;;;16.35;;
21786;SDS011;11055;50.870;4.316;2022-12-11T00:10:36;25.88;;;16.02;;
21786;SDS011;11055;50.870;4.316;2022-12-11T00:13:02;28.27;;;16.48;;
21786;SDS011;11055;50.870;4.316;2022-12-11T00:15:28;26.83;;;16.25;;
21786;SDS011;11055;50.870;4.316;2022-12-11T00:17:53;22.85;;;15.25;;
21786;SDS011;11055;50.870;4.316;2022-12-11T00:20:19;27.67;;;15.63;;
21786;SDS011;11055;50.870;4.316;2022-12-11T00:22:45;27.50;;;16.98;;
21786;SDS011;11055;50.870;4.316;2022-12-11T00:25:10;25.80;;;15.80;;
21786;SDS011;11055;50.870;4.316;2022-12-11T00:27:36;24.25;;;15.07;;
21786;SDS011;11055;50.870;4.316;2022-12-11T00:30:02;27.60;;;16.40;;
21786;SDS011;11055;50.870;4.316;2022-12-11T00:32:28;27.27;;;17.45;;
21786;SDS011;11055;50.870;4.316;2022-12-11T00:34:55;27.52;;;16.00;;
21786;SDS011;11055;50.870;4.316;2022-12-11T00:37:21;27.77;;;15.90;;
21786;SDS011;11055;50.870;4.316;2022-12-11T00:39:47;24.45;;;16.88;;
21786;SDS011;11055;50.870;4.316;2022-12-11T00:42:12;29.02;;;17.80;;
21786;SDS011;11055;50.870;4.316;2022-12-11T00:44:38;27.55;;;16.00;;
21786;SDS011;11055;50.870;4.316;2022-12-11T00:47:04;29.85;;;18.17;;
21786;SDS011;11055;50.870;4.316;2022-12-11T00:49:29;29.17;;;17.25;;
21786;SDS011;11055;50.870;4.316;2022-12-11T00:51:55;26.27;;;16.33;;
21786;SDS011;11055;50.870;4.316;2022-12-11T00:54:21;27.67;;;16.38;;
21786;SDS011;11055;50.870;4.316;2022-12-11T00:56:46;29.50;;;17.55;;
21786;SDS011;11055;50.870;4.316;2022-12-11T00:59:12;27.33;;;17.00;;
21786;SDS011;11055;50.870;4.316;2022-12-11T01:01:37;25.13;;;16.20;;
21786;SDS011;11055;50.870;4.316;2022-12-11T01:04:03;27.38;;;16.42;;
21786;SDS011;11055;50.870;4.316;2022-12-11T01:06:29;28.92;;;16.23;;
21786;SDS011;11055;50.870;4.316;2022-12-11T01:08:55;27.38;;;16.63;;
21786;SDS011;11055;50.870;4.316;2022-12-11T01:11:39;24.13;;;16.10;;
21786;SDS011;11055;50.870;4.316;2022-12-11T01:14:07;27.45;;;16.77;;
21786;SDS011;11055;50.870;4.316;2022-12-11T01:16:36;27.73;;;16.58;;
21786;SDS011;11055;50.870;4.316;2022-12-11T01:19:02;29.27;;;18.27;;
21786;SDS011;11055;50.870;4.316;2022-12-11T01:21:29;25.80;;;16.23;;
21786;SDS011;11055;50.870;4.316;2022-12-11T01:23:54;25.70;;;16.88;;
21786;SDS011;11055;50.870;4.316;2022-12-11T01:26:20;28.52;;;17.45;;
21786;SDS011;11055;50.870;4.316;2022-12-11T01:28:49;29.92;;;16.63;;
21786;SDS011;11055;50.870;4.316;2022-12-11T01:31:16;29.75;;;17.92;;
21786;SDS011;11055;50.870;4.316;2022-12-11T01:33:42;26.83;;;17.63;;
21786;SDS011;11055;50.870;4.316;2022-12-11T01:36:09;26.05;;;17.48;;
21786;SDS011;11055;50.870;4.316;2022-12-11T01:38:38;28.15;;;19.58;;
21786;SDS011;11055;50.870;4.316;2022-12-11T01:41:04;33.20;;;19.33;;
21786;SDS011;11055;50.870;4.316;2022-12-11T01:43:30;32.72;;;18.80;;
21786;SDS011;11055;50.870;4.316;2022-12-11T01:45:56;27.63;;;16.98;;
21786;SDS011;11055;50.870;4.316;2022-12-11T01:48:23;25.83;;;17.13;;
21786;SDS011;11055;50.870;4.316;2022-12-11T01:50:53;29.90;;;17.58;;
21786;SDS011;11055;50.870;4.316;2022-12-11T01:53:22;31.40;;;20.00;;
21786;SDS011;11055;50.870;4.316;2022-12-11T01:55:58;27.60;;;17.13;;
21786;SDS011;11055;50.870;4.316;2022-12-11T01:58:28;32.28;;;17.90;;
21786;SDS011;11055;50.870;4.316;2022-12-11T02:00:57;32.72;;;19.08;;
21786;SDS011;11055;50.870;4.316;2022-12-11T02:03:24;27.25;;;17.60;;
21786;SDS011;11055;50.870;4.316;2022-12-11T02:05:50;28.85;;;17.63;;
21786;SDS011;11055;50.870;4.316;2022-12-11T02:08:16;27.90;;;17.67;;
21786;SDS011;11055;50.870;4.316;2022-12-11T02:16:06;33.30;;;19.00;;
21786;SDS011;11055;50.870;4.316;2022-12-11T02:21:27;34.90;;;19.08;;
21786;SDS011;11055;50.870;4.316;2022-12-11T02:29:54;29.30;;;18.27;;
21786;SDS011;11055;50.870;4.316;2022-12-11T02:32:33;32.75;;;18.75;;
21786;SDS011;11055;50.870;4.316;2022-12-11T02:37:48;31.50;;;17.83;;
21786;SDS011;11055;50.870;4.316;2022-12-11T02:40:20;31.00;;;19.88;;
21786;SDS011;11055;50.870;4.316;2022-12-11T02:42:48;29.38;;;18.90;;
21786;SDS011;11055;50.870;4.316;2022-12-11T02:45:16;29.98;;;19.05;;
21786;SDS011;11055;50.870;4.316;2022-12-11T02:47:43;29.45;;;18.05;;
21786;SDS011;11055;50.870;4.316;2022-12-11T02:50:12;31.13;;;18.48;;
21786;SDS011;11055;50.870;4.316;2022-12-11T02:52:41;28.80;;;18.00;;
21786;SDS011;11055;50.870;4.316;2022-12-11T02:55:09;31.13;;;19.02;;
21786;SDS011;11055;50.870;4.316;2022-12-11T03:00:14;32.97;;;19.50;;
21786;SDS011;11055;50.870;4.316;2022-12-11T03:02:40;28.55;;;18.15;;
21786;SDS011;11055;50.870;4.316;2022-12-11T03:05:08;30.65;;;19.85;;
21786;SDS011;11055;50.870;4.316;2022-12-11T03:07:37;33.63;;;20.58;;
21786;SDS011;11055;50.870;4.316;2022-12-11T03:10:05;35.10;;;20.45;;
21786;SDS011;11055;50.870;4.316;2022-12-11T03:12:35;32.50;;;20.75;;
21786;SDS011;11055;50.870;4.316;2022-12-11T03:15:04;35.28;;;21.13;;
21786;SDS011;11055;50.870;4.316;2022-12-11T03:20:18;33.20;;;19.77;;
21786;SDS011;11055;50.870;4.316;2022-12-11T03:23:22;35.90;;;20.50;;
21786;SDS011;11055;50.870;4.316;2022-12-11T03:26:02;35.45;;;20.60;;
21786;SDS011;11055;50.870;4.316;2022-12-11T03:31:08;31.02;;;19.88;;
21786;SDS011;11055;50.870;4.316;2022-12-11T03:33:39;34.75;;;20.52;;
21786;SDS011;11055;50.870;4.316;2022-12-11T03:36:12;32.78;;;21.00;;
21786;SDS011;11055;50.870;4.316;2022-12-11T03:38:45;31.05;;;20.00;;
21786;SDS011;11055;50.870;4.316;2022-12-11T03:41:17;33.15;;;21.30;;
21786;SDS011;11055;50.870;4.316;2022-12-11T03:43:47;31.45;;;19.80;;
21786;SDS011;11055;50.870;4.316;2022-12-11T03:46:15;35.55;;;22.00;;
21786;SDS011;11055;50.870;4.316;2022-12-11T03:48:44;36.28;;;20.73;;
21786;SDS011;11055;50.870;4.316;2022-12-11T03:51:12;33.70;;;20.95;;
21786;SDS011;11055;50.870;4.316;2022-12-11T03:53:40;36.05;;;21.75;;
21786;SDS011;11055;50.870;4.316;2022-12-11T03:56:07;37.10;;;22.15;;
21786;SDS011;11055;50.870;4.316;2022-12-11T03:58:35;36.90;;;21.95;;
21786;SDS011;11055;50.870;4.316;2022-12-11T04:01:02;35.67;;;22.50;;
21786;SDS011;11055;50.870;4.316;2022-12-11T04:03:32;39.75;;;23.40;;
21786;SDS011;11055;50.870;4.316;2022-12-11T04:05:58;34.83;;;22.00;;
21786;SDS011;11055;50.870;4.316;2022-12-11T04:08:23;36.22;;;22.30;;
21786;SDS011;11055;50.870;4.316;2022-12-11T04:10:49;38.33;;;22.17;;
21786;SDS011;11055;50.870;4.316;2022-12-11T04:13:35;35.78;;;21.73;;
21786;SDS011;11055;50.870;4.316;2022-12-11T04:16:01;39.55;;;21.58;;
21786;SDS011;11055;50.870;4.316;2022-12-11T04:18:27;37.70;;;22.77;;
21786;SDS011;11055;50.870;4.316;2022-12-11T04:21:11;34.83;;;22.17;;
21786;SDS011;11055;50.870;4.316;2022-12-11T04:23:55;35.67;;;21.75;;
21786;SDS011;11055;50.870;4.316;2022-12-11T04:26:39;34.85;;;20.95;;
21786;SDS011;11055;50.870;4.316;2022-12-11T04:29:05;38.35;;;21.77;;
21786;SDS011;11055;50.870;4.316;2022-12-11T04:31:30;39.33;;;22.13;;
21786;SDS011;11055;50.870;4.316;2022-12-11T04:33:56;38.67;;;22.55;;
21786;SDS011;11055;50.870;4.316;2022-12-11T04:36:22;39.83;;;23.40;;
21786;SDS011;11055;50.870;4.316;2022-12-11T04:38:48;42.33;;;23.45;;
21786;SDS011;11055;50.870;4.316;2022-12-11T04:41:14;43.40;;;23.55;;
21786;SDS011;11055;50.870;4.316;2022-12-11T04:43:40;43.38;;;23.02;;
21786;SDS011;11055;50.870;4.316;2022-12-11T04:48:42;43.85;;;23.70;;
21786;SDS011;11055;50.870;4.316;2022-12-11T04:51:08;44.03;;;24.05;;
21786;SDS011;11055;50.870;4.316;2022-12-11T04:53:34;43.55;;;23.45;;
21786;SDS011;11055;50.870;4.316;2022-12-11T04:56:03;43.97;;;25.00;;
21786;SDS011;11055;50.870;4.316;2022-12-11T04:58:30;43.60;;;24.15;;
21786;SDS011;11055;50.870;4.316;2022-12-11T05:00:55;42.45;;;23.92;;
21786;SDS011;11055;50.870;4.316;2022-12-11T05:03:21;42.28;;;22.83;;
21786;SDS011;11055;50.870;4.316;2022-12-11T05:05:48;40.95;;;23.67;;
21786;SDS011;11055;50.870;4.316;2022-12-11T05:08:18;44.08;;;23.60;;
21786;SDS011;11055;50.870;4.316;2022-12-11T05:10:53;45.42;;;22.60;;
21786;SDS011;11055;50.870;4.316;2022-12-11T05:13:23;42.28;;;24.40;;
21786;SDS011;11055;50.870;4.316;2022-12-11T05:15:50;45.25;;;23.77;;
21786;SDS011;11055;50.870;4.316;2022-12-11T05:18:16;42.20;;;23.65;;
21786;SDS011;11055;50.870;4.316;2022-12-11T05:20:41;43.55;;;24.80;;
21786;SDS011;11055;50.870;4.316;2022-12-11T05:23:07;43.13;;;23.63;;
21786;SDS011;11055;50.870;4.316;2022-12-11T05:25:33;56.97;;;33.05;;
21786;SDS011;11055;50.870;4.316;2022-12-11T05:27:58;42.53;;;24.13;;
21786;SDS011;11055;50.870;4.316;2022-12-11T05:30:24;39.72;;;23.05;;
21786;SDS011;11055;50.870;4.316;2022-12-11T05:32:50;43.80;;;24.40;;
21786;SDS011;11055;50.870;4.316;2022-12-11T05:35:16;39.72;;;22.08;;
21786;SDS011;11055;50.870;4.316;2022-12-11T05:37:41;43.15;;;23.45;;
21786;SDS011;11055;50.870;4.316;2022-12-11T05:40:07;41.92;;;23.42;;
21786;SDS011;11055;50.870;4.316;2022-12-11T05:42:33;44.88;;;24.60;;
21786;SDS011;11055;50.870;4.316;2022-12-11T05:44:59;39.78;;;23.58;;
21786;SDS011;11055;50.870;4.316;2022-12-11T05:47:25;42.75;;;23.83;;
21786;SDS011;11055;50.870;4.316;2022-12-11T05:49:50;37.92;;;22.48;;
21786;SDS011;11055;50.870;4.316;2022-12-11T05:52:16;40.63;;;23.95;;
21786;SDS011;11055;50.870;4.316;2022-12-11T05:54:42;40.33;;;22.73;;
21786;SDS011;11055;50.870;4.316;2022-12-11T05:57:07;41.15;;;23.35;;
21786;SDS011;11055;50.870;4.316;2022-12-11T05:59:33;40.20;;;23.48;;
21786;SDS011;11055;50.870;4.316;2022-12-11T06:01:59;40.83;;;22.67;;
21786;SDS011;11055;50.870;4.316;2022-12-11T06:04:24;38.47;;;22.50;;
21786;SDS011;11055;50.870;4.316;2022-12-11T06:06:52;41.20;;;23.20;;
21786;SDS011;11055;50.870;4.316;2022-12-11T06:09:19;41.88;;;23.10;;
21786;SDS011;11055;50.870;4.316;2022-12-11T06:11:44;39.50;;;23.25;;
21786;SDS011;11055;50.870;4.316;2022-12-11T06:14:10;42.42;;;23.20;;
21786;SDS011;11055;50.870;4.316;2022-12-11T06:16:36;37.70;;;21.95;;
21786;SDS011;11055;50.870;4.316;2022-12-11T06:19:02;40.50;;;23.27;;
21786;SDS011;11055;50.870;4.316;2022-12-11T06:21:28;42.45;;;23.38;;
21786;SDS011;11055;50.870;4.316;2022-12-11T06:23:57;40.40;;;24.10;;
21786;SDS011;11055;50.870;4.316;2022-12-11T06:26:24;44.80;;;23.15;;
21786;SDS011;11055;50.870;4.316;2022-12-11T06:28:51;44.97;;;23.23;;
21786;SDS011;11055;50.870;4.316;2022-12-11T06:31:17;38.78;;;22.08;;
21786;SDS011;11055;50.870;4.316;2022-12-11T06:33:43;44.55;;;23.40;;
21786;SDS011;11055;50.870;4.316;2022-12-11T06:36:10;41.75;;;23.73;;
21786;SDS011;11055;50.870;4.316;2022-12-11T06:38:39;41.58;;;23.08;;
21786;SDS011;11055;50.870;4.316;2022-12-11T06:41:06;42.15;;;23.73;;
21786;SDS011;11055;50.870;4.316;2022-12-11T06:43:32;40.00;;;22.52;;
21786;SDS011;11055;50.870;4.316;2022-12-11T06:46:06;44.67;;;22.90;;
21786;SDS011;11055;50.870;4.316;2022-12-11T06:48:34;44.15;;;24.27;;
21786;SDS011;11055;50.870;4.316;2022-12-11T06:51:03;47.45;;;23.08;;
21786;SDS011;11055;50.870;4.316;2022-12-11T06:53:34;42.03;;;22.88;;
21786;SDS011;11055;50.870;4.316;2022-12-11T06:56:03;45.15;;;24.13;;
21786;SDS011;11055;50.870;4.316;2022-12-11T06:58:32;40.85;;;23.20;;
21786;SDS011;11055;50.870;4.316;2022-12-11T07:00:59;46.72;;;24.95;;
21786;SDS011;11055;50.870;4.316;2022-12-11T07:03:24;45.47;;;24.00;;
21786;SDS011;11055;50.870;4.316;2022-12-11T07:05:50;46.33;;;23.27;;
21786;SDS011;11055;50.870;4.316;2022-12-11T07:08:16;47.40;;;24.17;;
21786;SDS011;11055;50.870;4.316;2022-12-11T07:10:41;50.53;;;25.50;;
21786;SDS011;11055;50.870;4.316;2022-12-11T07:13:07;43.00;;;23.67;;
21786;SDS011;11055;50.870;4.316;2022-12-11T07:15:32;41.22;;;21.80;;
21786;SDS011;11055;50.870;4.316;2022-12-11T07:17:58;37.88;;;21.63;;
21786;SDS011;11055;50.870;4.316;2022-12-11T07:20:23;41.78;;;21.85;;
21786;SDS011;11055;50.870;4.316;2022-12-11T07:22:49;40.15;;;21.75;;
21786;SDS011;11055;50.870;4.316;2022-12-11T07:25:15;44.35;;;21.95;;
21786;SDS011;11055;50.870;4.316;2022-12-11T07:27:40;47.85;;;23.00;;
21786;SDS011;11055;50.870;4.316;2022-12-11T07:30:06;44.58;;;23.13;;
21786;SDS011;11055;50.870;4.316;2022-12-11T07:32:33;41.95;;;23.38;;
21786;SDS011;11055;50.870;4.316;2022-12-11T07:34:58;39.28;;;21.83;;
21786;SDS011;11055;50.870;4.316;2022-12-11T07:37:24;40.80;;;22.75;;
21786;SDS011;11055;50.870;4.316;2022-12-11T07:39:50;45.72;;;24.42;;
21786;SDS011;11055;50.870;4.316;2022-12-11T07:42:15;40.85;;;22.00;;
21786;SDS011;11055;50.870;4.316;2022-12-11T07:44:41;43.60;;;21.65;;
21786;SDS011;11055;50.870;4.316;2022-12-11T07:47:07;42.10;;;23.40;;
21786;SDS011;11055;50.870;4.316;2022-12-11T07:49:32;43.97;;;23.85;;
21786;SDS011;11055;50.870;4.316;2022-12-11T07:51:58;43.28;;;22.15;;
21786;SDS011;11055;50.870;4.316;2022-12-11T07:54:24;46.00;;;23.77;;
21786;SDS011;11055;50.870;4.316;2022-12-11T07:56:49;41.45;;;22.02;;
21786;SDS011;11055;50.870;4.316;2022-12-11T07:59:15;40.50;;;22.27;;
21786;SDS011;11055;50.870;4.316;2022-12-11T08:01:41;39.03;;;21.70;;
21786;SDS011;11055;50.870;4.316;2022-12-11T08:04:08;40.42;;;21.05;;
21786;SDS011;11055;50.870;4.316;2022-12-11T08:06:36;39.55;;;21.67;;
21786;SDS011;11055;50.870;4.316;2022-12-11T08:09:08;41.55;;;22.08;;
21786;SDS011;11055;50.870;4.316;2022-12-11T08:11:35;41.63;;;23.85;;
21786;SDS011;11055;50.870;4.316;2022-12-11T08:14:02;46.58;;;27.05;;
21786;SDS011;11055;50.870;4.316;2022-12-11T08:16:29;45.47;;;22.73;;
21786;SDS011;11055;50.870;4.316;2022-12-11T08:18:56;43.00;;;23.75;;
21786;SDS011;11055;50.870;4.316;2022-12-11T08:21:23;42.50;;;23.50;;
21786;SDS011;11055;50.870;4.316;2022-12-11T08:23:50;37.17;;;20.83;;
21786;SDS011;11055;50.870;4.316;2022-12-11T08:26:19;42.65;;;20.75;;
21786;SDS011;11055;50.870;4.316;2022-12-11T08:28:49;42.67;;;22.00;;
21786;SDS011;11055;50.870;4.316;2022-12-11T08:31:15;34.60;;;19.77;;
21786;SDS011;11055;50.870;4.316;2022-12-11T08:33:41;40.25;;;21.38;;
21786;SDS011;11055;50.870;4.316;2022-12-11T08:36:09;44.40;;;22.88;;
21786;SDS011;11055;50.870;4.316;2022-12-11T08:38:37;41.22;;;22.00;;
21786;SDS011;11055;50.870;4.316;2022-12-11T08:43:35;41.85;;;21.45;;
21786;SDS011;11055;50.870;4.316;2022-12-11T08:46:02;35.63;;;20.25;;
21786;SDS011;11055;50.870;4.316;2022-12-11T08:48:27;37.95;;;19.75;;
21786;SDS011;11055;50.870;4.316;2022-12-11T08:50:53;40.90;;;21.75;;
21786;SDS011;11055;50.870;4.316;2022-12-11T08:53:19;37.05;;;20.33;;
21786;SDS011;11055;50.870;4.316;2022-12-11T08:55:44;39.15;;;21.42;;
21786;SDS011;11055;50.870;4.316;2022-12-11T08:58:10;39.45;;;20.92;;
21786;SDS011;11055;50.870;4.316;2022-12-11T09:00:35;41.22;;;20.77;;
21786;SDS011;11055;50.870;4.316;2022-12-11T09:03:01;39.20;;;21.40;;
21786;SDS011;11055;50.870;4.316;2022-12-11T09:05:27;36.90;;;20.63;;
21786;SDS011;11055;50.870;4.316;2022-12-11T09:07:53;38.65;;;22.00;;
21786;SDS011;11055;50.870;4.316;2022-12-11T09:10:18;41.50;;;22.05;;
21786;SDS011;11055;50.870;4.316;2022-12-11T09:12:44;41.88;;;22.80;;
21786;SDS011;11055;50.870;4.316;2022-12-11T09:15:10;40.55;;;21.45;;
21786;SDS011;11055;50.870;4.316;2022-12-11T09:17:36;38.47;;;21.17;;
21786;SDS011;11055;50.870;4.316;2022-12-11T09:20:02;39.40;;;21.65;;
21786;SDS011;11055;50.870;4.316;2022-12-11T09:22:30;40.72;;;21.38;;
21786;SDS011;11055;50.870;4.316;2022-12-11T09:24:57;37.75;;;20.95;;
21786;SDS011;11055;50.870;4.316;2022-12-11T09:27:22;40.08;;;21.23;;
21786;SDS011;11055;50.870;4.316;2022-12-11T09:29:48;34.42;;;19.85;;
21786;SDS011;11055;50.870;4.316;2022-12-11T09:32:14;33.42;;;18.92;;
21786;SDS011;11055;50.870;4.316;2022-12-11T09:34:39;34.10;;;20.20;;
21786;SDS011;11055;50.870;4.316;2022-12-11T09:37:05;29.70;;;18.90;;
21786;SDS011;11055;50.870;4.316;2022-12-11T09:39:30;33.53;;;18.67;;
21786;SDS011;11055;50.870;4.316;2022-12-11T09:44:30;37.05;;;19.30;;
21786;SDS011;11055;50.870;4.316;2022-12-11T09:47:20;32.95;;;18.70;;
21786;SDS011;11055;50.870;4.316;2022-12-11T09:49:46;35.17;;;18.85;;
21786;SDS011;11055;50.870;4.316;2022-12-11T09:52:18;32.25;;;19.00;;
21786;SDS011;11055;50.870;4.316;2022-12-11T09:54:49;32.03;;;19.02;;
21786;SDS011;11055;50.870;4.316;2022-12-11T10:00:18;36.40;;;21.58;;
21786;SDS011;11055;50.870;4.316;2022-12-11T10:14:35;34.45;;;18.58;;
21786;SDS011;11055;50.870;4.316;2022-12-11T10:17:25;35.35;;;19.88;;
21786;SDS011;11055;50.870;4.316;2022-12-11T10:19:57;37.17;;;20.05;;
21786;SDS011;11055;50.870;4.316;2022-12-11T10:22:30;36.60;;;19.33;;
21786;SDS011;11055;50.870;4.316;2022-12-11T10:24:58;41.63;;;20.42;;
21786;SDS011;11055;50.870;4.316;2022-12-11T10:27:30;38.08;;;20.60;;
21786;SDS011;11055;50.870;4.316;2022-12-11T10:30:11;36.50;;;19.63;;
21786;SDS011;11055;50.870;4.316;2022-12-11T10:32:51;44.40;;;23.10;;
21786;SDS011;11055;50.870;4.316;2022-12-11T10:37:54;48.58;;;25.58;;
21786;SDS011;11055;50.870;4.316;2022-12-11T10:40:25;45.75;;;22.85;;
21786;SDS011;11055;50.870;4.316;2022-12-11T10:42:55;40.58;;;20.95;;
21786;SDS011;11055;50.870;4.316;2022-12-11T10:45:21;41.42;;;20.70;;
21786;SDS011;11055;50.870;4.316;2022-12-11T10:47:46;40.42;;;20.88;;
21786;SDS011;11055;50.870;4.316;2022-12-11T10:50:23;34.05;;;16.40;;
21786;SDS011;11055;50.870;4.316;2022-12-11T10:52:50;34.80;;;17.83;;
21786;SDS011;11055;50.870;4.316;2022-12-11T10:57:59;40.10;;;19.40;;
21786;SDS011;11055;50.870;4.316;2022-12-11T11:00:29;35.53;;;17.90;;
21786;SDS011;11055;50.870;4.316;2022-12-11T11:02:57;35.00;;;17.70;;
21786;SDS011;11055;50.870;4.316;2022-12-11T11:05:30;38.50;;;18.75;;
21786;SDS011;11055;50.870;4.316;2022-12-11T11:08:02;36.90;;;18.40;;
21786;SDS011;11055;50.870;4.316;2022-12-11T11:10:36;31.83;;;15.93;;
21786;SDS011;11055;50.870;4.316;2022-12-11T11:13:02;38.75;;;18.52;;
21786;SDS011;11055;50.870;4.316;2022-12-11T11:15:28;38.72;;;18.27;;
21786;SDS011;11055;50.870;4.316;2022-12-11T11:17:55;34.45;;;17.05;;
21786;SDS011;11055;50.870;4.316;2022-12-11T11:20:29;31.10;;;16.00;;
21786;SDS011;11055;50.870;4.316;2022-12-11T11:23:02;32.97;;;15.63;;
21786;SDS011;11055;50.870;4.316;2022-12-11T11:25:35;32.40;;;16.33;;
21786;SDS011;11055;50.870;4.316;2022-12-11T11:30:31;30.45;;;15.00;;
21786;SDS011;11055;50.870;4.316;2022-12-11T11:33:04;32.33;;;15.90;;
21786;SDS011;11055;50.870;4.316;2022-12-11T11:35:36;27.98;;;14.68;;
21786;SDS011;11055;50.870;4.316;2022-12-11T11:41:24;26.50;;;14.98;;
21786;SDS011;11055;50.870;4.316;2022-12-11T11:43:55;33.47;;;15.68;;
21786;SDS011;11055;50.870;4.316;2022-12-11T11:46:33;33.28;;;15.98;;
21786;SDS011;11055;50.870;4.316;2022-12-11T11:51:54;29.77;;;15.57;;
21786;SDS011;11055;50.870;4.316;2022-12-11T11:54:36;27.75;;;13.32;;
21786;SDS011;11055;50.870;4.316;2022-12-11T12:00:15;25.65;;;14.27;;
21786;SDS011;11055;50.870;4.316;2022-12-11T12:02:41;28.95;;;14.77;;
21786;SDS011;11055;50.870;4.316;2022-12-11T12:05:16;22.83;;;10.68;;
21786;SDS011;11055;50.870;4.316;2022-12-11T12:08:07;22.73;;;11.80;;
21786;SDS011;11055;50.870;4.316;2022-12-11T12:11:00;22.13;;;10.82;;
21786;SDS011;11055;50.870;4.316;2022-12-11T12:16:21;22.60;;;12.05;;
21786;SDS011;11055;50.870;4.316;2022-12-11T12:30:16;34.08;;;17.95;;
21786;SDS011;11055;50.870;4.316;2022-12-11T12:35:39;65.97;;;34.47;;
21786;SDS011;11055;50.870;4.316;2022-12-11T12:38:30;45.85;;;25.80;;
21786;SDS011;11055;50.870;4.316;2022-12-11T12:41:05;32.47;;;15.95;;
21786;SDS011;11055;50.870;4.316;2022-12-11T12:44:28;31.95;;;17.55;;
21786;SDS011;11055;50.870;4.316;2022-12-11T12:47:11;31.45;;;15.30;;
21786;SDS011;11055;50.870;4.316;2022-12-11T12:49:34;34.17;;;17.85;;
21786;SDS011;11055;50.870;4.316;2022-12-11T12:52:06;35.25;;;18.00;;
21786;SDS011;11055;50.870;4.316;2022-12-11T12:54:37;35.65;;;17.65;;
21786;SDS011;11055;50.870;4.316;2022-12-11T12:57:04;32.60;;;18.50;;
21786;SDS011;11055;50.870;4.316;2022-12-11T12:59:30;35.92;;;18.98;;
21786;SDS011;11055;50.870;4.316;2022-12-11T13:01:57;38.58;;;18.02;;
21786;SDS011;11055;50.870;4.316;2022-12-11T13:07:25;31.42;;;16.83;;
21786;SDS011;11055;50.870;4.316;2022-12-11T13:12:31;37.42;;;18.60;;
21786;SDS011;11055;50.870;4.316;2022-12-11T13:14:58;39.97;;;18.63;;
21786;SDS011;11055;50.870;4.316;2022-12-11T13:17:35;39.58;;;20.13;;
21786;SDS011;11055;50.870;4.316;2022-12-11T13:20:10;52.25;;;23.95;;
21786;SDS011;11055;50.870;4.316;2022-12-11T13:22:49;37.95;;;18.70;;
21786;SDS011;11055;50.870;4.316;2022-12-11T13:25:31;47.83;;;24.90;;
21786;SDS011;11055;50.870;4.316;2022-12-11T13:28:20;37.35;;;17.75;;
21786;SDS011;11055;50.870;4.316;2022-12-11T13:30:55;38.65;;;17.88;;
21786;SDS011;11055;50.870;4.316;2022-12-11T13:33:21;37.83;;;18.10;;
21786;SDS011;11055;50.870;4.316;2022-12-11T13:35:48;39.05;;;20.08;;
21786;SDS011;11055;50.870;4.316;2022-12-11T13:38:35;35.33;;;18.00;;
21786;SDS011;11055;50.870;4.316;2022-12-11T13:41:02;40.63;;;19.77;;
21786;SDS011;11055;50.870;4.316;2022-12-11T13:43:33;37.85;;;18.13;;
21786;SDS011;11055;50.870;4.316;2022-12-11T13:46:00;35.50;;;19.48;;
21786;SDS011;11055;50.870;4.316;2022-12-11T13:48:39;37.83;;;19.70;;
21786;SDS011;11055;50.870;4.316;2022-12-11T13:51:19;43.28;;;20.30;;
21786;SDS011;11055;50.870;4.316;2022-12-11T13:53:46;38.75;;;19.17;;
21786;SDS011;11055;50.870;4.316;2022-12-11T13:56:20;40.10;;;18.92;;
21786;SDS011;11055;50.870;4.316;2022-12-11T13:58:46;40.30;;;19.30;;
21786;SDS011;11055;50.870;4.316;2022-12-11T14:03:59;38.30;;;18.85;;
21786;SDS011;11055;50.870;4.316;2022-12-11T14:06:34;42.72;;;20.33;;
21786;SDS011;11055;50.870;4.316;2022-12-11T14:09:02;43.70;;;21.50;;
21786;SDS011;11055;50.870;4.316;2022-12-11T14:11:41;39.20;;;19.70;;
21786;SDS011;11055;50.870;4.316;2022-12-11T14:14:14;44.05;;;19.88;;
21786;SDS011;11055;50.870;4.316;2022-12-11T14:16:53;39.42;;;19.77;;
21786;SDS011;11055;50.870;4.316;2022-12-11T14:19:20;38.38;;;20.13;;
21786;SDS011;11055;50.870;4.316;2022-12-11T14:21:53;40.17;;;19.80;;
21786;SDS011;11055;50.870;4.316;2022-12-11T14:24:20;47.78;;;21.98;;
21786;SDS011;11055;50.870;4.316;2022-12-11T14:26:49;41.58;;;21.10;;
21786;SDS011;11055;50.870;4.316;2022-12-11T14:29:30;42.05;;;21.38;;
21786;SDS011;11055;50.870;4.316;2022-12-11T14:32:01;40.50;;;20.83;;
21786;SDS011;11055;50.870;4.316;2022-12-11T14:34:36;40.05;;;19.80;;
21786;SDS011;11055;50.870;4.316;2022-12-11T14:37:08;42.45;;;20.42;;
21786;SDS011;11055;50.870;4.316;2022-12-11T14:39:40;41.50;;;20.35;;
21786;SDS011;11055;50.870;4.316;2022-12-11T14:42:16;43.47;;;22.08;;
21786;SDS011;11055;50.870;4.316;2022-12-11T14:44:55;46.33;;;22.08;;
21786;SDS011;11055;50.870;4.316;2022-12-11T14:47:27;44.72;;;22.13;;
21786;SDS011;11055;50.870;4.316;2022-12-11T14:52:38;42.13;;;20.92;;
21786;SDS011;11055;50.870;4.316;2022-12-11T14:55:08;44.40;;;21.52;;
21786;SDS011;11055;50.870;4.316;2022-12-11T14:57:38;41.15;;;19.90;;
21786;SDS011;11055;50.870;4.316;2022-12-11T15:00:07;40.72;;;20.42;;
21786;SDS011;11055;50.870;4.316;2022-12-11T15:02:35;39.40;;;18.73;;
21786;SDS011;11055;50.870;4.316;2022-12-11T15:05:14;37.13;;;19.65;;
21786;SDS011;11055;50.870;4.316;2022-12-11T15:07:43;36.22;;;19.10;;
21786;SDS011;11055;50.870;4.316;2022-12-11T15:12:59;35.30;;;18.23;;
21786;SDS011;11055;50.870;4.316;2022-12-11T15:15:25;39.92;;;20.60;;
21786;SDS011;11055;50.870;4.316;2022-12-11T15:17:53;38.15;;;19.05;;
21786;SDS011;11055;50.870;4.316;2022-12-11T15:20:21;31.52;;;17.60;;
21786;SDS011;11055;50.870;4.316;2022-12-11T15:22:48;32.80;;;18.70;;
21786;SDS011;11055;50.870;4.316;2022-12-11T15:25:21;57.25;;;25.45;;
21786;SDS011;11055;50.870;4.316;2022-12-11T15:27:50;34.75;;;18.95;;
21786;SDS011;11055;50.870;4.316;2022-12-11T15:32:43;31.17;;;17.90;;
21786;SDS011;11055;50.870;4.316;2022-12-11T15:35:20;27.45;;;16.20;;
21786;SDS011;11055;50.870;4.316;2022-12-11T15:37:54;30.88;;;17.58;;
21786;SDS011;11055;50.870;4.316;2022-12-11T15:40:22;50.53;;;24.42;;
21786;SDS011;11055;50.870;4.316;2022-12-11T15:42:48;36.53;;;22.40;;
21786;SDS011;11055;50.870;4.316;2022-12-11T15:45:15;32.65;;;18.00;;
21786;SDS011;11055;50.870;4.316;2022-12-11T15:47:41;28.60;;;16.75;;
21786;SDS011;11055;50.870;4.316;2022-12-11T15:52:43;25.15;;;15.40;;
21786;SDS011;11055;50.870;4.316;2022-12-11T15:55:10;20.63;;;14.35;;
21786;SDS011;11055;50.870;4.316;2022-12-11T15:57:36;22.17;;;13.70;;
21786;SDS011;11055;50.870;4.316;2022-12-11T16:00:04;22.98;;;13.43;;
21786;SDS011;11055;50.870;4.316;2022-12-11T16:02:30;26.58;;;15.88;;
21786;SDS011;11055;50.870;4.316;2022-12-11T16:04:56;22.83;;;14.13;;
21786;SDS011;11055;50.870;4.316;2022-12-11T16:07:23;49.45;;;32.58;;
21786;SDS011;11055;50.870;4.316;2022-12-11T16:09:50;29.98;;;17.30;;
21786;SDS011;11055;50.870;4.316;2022-12-11T16:12:16;21.27;;;14.82;;